Time;durP1;ratioP1;P1;durP2;ratioP2;P2;SDS_P1;SDS_P2;PMS_P1;PMS_P2;Temp;Humidity;BMP_temperature;BMP_pressure;BME280_temperature;BME280_humidity;BME280_pressure;Samples;Min_cycle;Max_cycle;Signal;HPM_P1;HPM_P2
2024/01/16 00:01:05;;;;;;;6.93;2.10;;;;;;;-145.69;45.95;52390.91;5133546;28;20547;-79
2024/01/16 00:03:33;;;;;;;5.13;1.80;;;;;;;-145.69;45.84;52388.94;5133670;28;20230;-79
2024/01/16 00:06:01;;;;;;;3.47;1.80;;;;;;;-145.69;45.95;52361.22;5133426;28;20670;-79
2024/01/16 00:08:28;;;;;;;4.03;1.70;;;;;;;-145.69;46.33;52367.16;5133385;27;20651;-79
2024/01/16 00:10:54;;;;;;;6.27;2.20;;;;;;;-145.69;46.05;52349.31;5133600;28;20192;-80
2024/01/16 00:13:21;;;;;;;3.87;2.07;;;;;;;-145.69;45.99;52394.88;5133851;27;20203;-80
2024/01/16 00:15:49;;;;;;;3.20;2.03;;;;;;;-145.69;46.31;52371.13;5146279;27;20198;-80
2024/01/16 00:18:16;;;;;;;8.50;2.33;;;;;;;-145.69;46.40;52373.09;5153859;27;20228;-79
2024/01/16 00:20:44;;;;;;;3.97;1.90;;;;;;;-145.69;46.79;52377.06;5132824;28;20201;-79
2024/01/16 00:23:10;;;;;;;6.83;2.10;;;;;;;-145.69;46.43;52381.00;5133700;27;20200;-79
2024/01/16 00:25:37;;;;;;;5.37;2.23;;;;;;;-145.69;45.57;52353.28;5144273;27;20200;-79
2024/01/16 00:28:03;;;;;;;5.33;2.07;;;;;;;-145.69;45.85;52363.19;5138912;27;20205;-79
2024/01/16 00:30:30;;;;;;;4.87;2.03;;;;;;;-145.69;46.03;52349.31;5133526;27;20204;-81
2024/01/16 00:32:56;;;;;;;4.63;2.10;;;;;;;-145.69;45.49;52377.06;5133390;27;20197;-82
2024/01/16 00:35:23;;;;;;;4.23;2.10;;;;;;;-145.69;45.71;52422.59;5133034;28;20209;-80
2024/01/16 00:37:51;;;;;;;5.30;1.80;;;;;;;-145.69;45.90;52339.44;5133473;27;20306;-80
2024/01/16 00:40:17;;;;;;;3.83;2.10;;;;;;;-145.69;46.03;52373.09;5133231;28;20651;-81
2024/01/16 00:42:44;;;;;;;3.67;1.90;;;;;;;-145.69;46.11;52402.78;5133397;28;20235;-79
2024/01/16 00:45:10;;;;;;;4.23;2.20;;;;;;;-145.69;45.96;52390.91;5131534;27;20675;-79
2024/01/16 00:47:38;;;;;;;3.43;1.97;;;;;;;-145.69;46.09;52375.06;5115717;28;20232;-79
2024/01/16 00:50:05;;;;;;;6.43;2.30;;;;;;;-145.69;46.41;52343.38;5116809;28;20209;-79
2024/01/16 00:52:31;;;;;;;5.07;2.33;;;;;;;-145.69;47.11;52357.25;5116673;28;20285;-78
2024/01/16 00:54:59;;;;;;;6.53;2.57;;;;;;;-145.69;46.46;52381.00;5121360;27;20200;-79
2024/01/16 00:57:26;;;;;;;4.77;2.20;;;;;;;-145.69;46.69;52371.13;5136786;27;20818;-78
2024/01/16 00:59:52;;;;;;;5.87;2.27;;;;;;;-145.69;46.73;52373.09;5136714;27;20217;-79
2024/01/16 01:02:19;;;;;;;4.57;2.13;;;;;;;-145.69;46.47;52404.78;5137028;27;20193;-79
2024/01/16 01:04:45;;;;;;;2.97;1.77;;;;;;;-145.69;46.88;52377.06;5136363;27;20254;-80
2024/01/16 01:07:14;;;;;;;6.77;2.07;;;;;;;-145.69;46.49;52381.00;5137166;27;20200;-79
2024/01/16 01:09:40;;;;;;;3.80;2.07;;;;;;;-145.69;46.74;52384.97;5136948;27;20193;-79
2024/01/16 01:12:09;;;;;;;3.80;2.30;;;;;;;-145.69;47.32;52402.78;5137107;27;20242;-79
2024/01/16 01:14:35;;;;;;;3.17;2.10;;;;;;;-145.69;47.19;52390.91;5137145;27;20750;-79
2024/01/16 01:17:02;;;;;;;5.63;2.13;;;;;;;-145.69;47.53;52384.97;5157389;27;20629;-79
2024/01/16 01:19:28;;;;;;;4.67;2.50;;;;;;;-145.69;47.81;52361.22;5157457;27;20230;-79
2024/01/16 01:21:55;;;;;;;4.50;2.33;;;;;;;-145.69;48.16;52396.84;5157576;27;20199;-79
2024/01/16 01:24:21;;;;;;;3.83;1.97;;;;;;;-145.69;48.09;52402.78;5157611;27;20215;-79
2024/01/16 01:26:48;;;;;;;5.73;2.03;;;;;;;-145.69;48.48;52357.25;5137582;27;20196;-80
2024/01/16 01:29:15;;;;;;;8.33;2.13;;;;;;;-145.69;48.88;52424.59;5136610;27;20204;-79
2024/01/16 01:31:41;;;;;;;5.07;2.40;;;;;;;-145.69;48.65;52412.69;5136431;27;20556;-79
2024/01/16 01:34:08;;;;;;;7.33;2.17;;;;;;;-145.69;48.92;52367.16;5136362;27;20204;-80
2024/01/16 01:36:35;;;;;;;3.93;2.10;;;;;;;-145.69;49.43;52412.69;5153484;27;20241;-80
2024/01/16 01:39:03;;;;;;;6.13;2.00;;;;;;;-145.69;49.84;52392.91;5157243;27;20626;-81
2024/01/16 01:41:29;;;;;;;6.53;2.47;;;;;;;-145.69;49.77;52396.84;5157066;27;20303;-80
2024/01/16 01:43:55;;;;;;;3.07;2.03;;;;;;;-145.69;49.70;52398.84;5157277;27;20574;-80
2024/01/16 01:46:23;;;;;;;4.40;2.20;;;;;;;-145.69;49.94;52369.13;5141265;27;20600;-80
2024/01/16 01:48:50;;;;;;;6.40;2.40;;;;;;;-145.69;49.91;52396.84;5136095;27;20197;-80
2024/01/16 01:51:19;;;;;;;5.43;2.10;;;;;;;-145.69;50.35;52428.53;5136281;27;20192;-78
2024/01/16 01:53:48;;;;;;;7.20;2.17;;;;;;;-145.69;50.77;52396.84;5136139;27;20651;-78
2024/01/16 01:56:17;;;;;;;4.37;2.20;;;;;;;-145.69;50.32;52369.13;5134837;27;20223;-78
2024/01/16 01:58:45;;;;;;;4.80;2.00;;;;;;;-145.69;50.98;52377.06;5135600;27;20233;-80
2024/01/16 02:01:12;;;;;;;2.67;1.80;;;;;;;-145.69;50.95;52375.06;5135983;27;20197;-80
2024/01/16 02:03:44;;;;;;;3.30;2.00;;;;;;;-145.69;51.45;52394.88;5135856;27;20197;-80
2024/01/16 02:06:11;;;;;;;4.27;1.70;;;;;;;-145.69;51.51;52379.03;5136035;27;20192;-81
2024/01/16 02:08:38;;;;;;;4.87;2.30;;;;;;;-145.69;51.69;52404.78;5135913;27;20207;-80
2024/01/16 02:11:05;;;;;;;4.40;2.30;;;;;;;-145.69;52.69;52367.16;5135698;27;20204;-81
2024/01/16 02:13:32;;;;;;;3.90;2.37;;;;;;;-145.69;52.00;52396.84;5135854;27;20196;-78
2024/01/16 02:15:58;;;;;;;5.23;2.27;;;;;;;-145.69;51.96;52432.50;5135688;27;20230;-81
2024/01/16 02:18:25;;;;;;;2.80;1.97;;;;;;;-145.69;52.44;52420.63;5135507;27;20221;-79
2024/01/16 02:20:56;;;;;;;5.30;2.40;;;;;;;-145.69;53.09;52420.63;5135968;27;20207;-79
2024/01/16 02:23:27;;;;;;;3.37;2.27;;;;;;;-145.69;52.94;52418.63;5135345;27;20532;-79
2024/01/16 02:25:54;;;;;;;5.50;2.00;;;;;;;-145.69;53.97;52416.66;5135344;27;20200;-81
2024/01/16 02:28:20;;;;;;;4.70;2.23;;;;;;;-145.69;54.07;52398.84;5135177;27;20192;-81
2024/01/16 02:30:47;;;;;;;5.33;2.10;;;;;;;-145.69;53.55;52424.59;5135505;27;20197;-81
2024/01/16 02:33:14;;;;;;;2.73;1.93;;;;;;;-145.69;53.10;52408.75;5133947;27;20197;-80
2024/01/16 02:35:40;;;;;;;4.33;1.87;;;;;;;-145.69;54.05;52436.47;5133991;27;20200;-81
2024/01/16 02:38:06;;;;;;;4.50;2.20;;;;;;;-145.69;54.45;52381.00;5134918;27;20667;-81
2024/01/16 02:40:34;;;;;;;3.23;1.80;;;;;;;-145.69;54.37;52392.91;5135224;27;20254;-81
2024/01/16 02:43:01;;;;;;;2.13;1.60;;;;;;;-145.69;54.48;52448.34;5135059;27;20205;-81
2024/01/16 02:45:28;;;;;;;3.17;2.00;;;;;;;-145.69;54.40;52412.69;5134899;27;20204;-79
2024/01/16 02:47:55;;;;;;;6.67;2.13;;;;;;;-145.69;54.55;52412.69;5134788;27;20236;-79
2024/01/16 02:50:21;;;;;;;2.87;2.17;;;;;;;-145.69;55.50;52412.69;5135272;27;20664;-80
2024/01/16 02:52:48;;;;;;;5.80;2.17;;;;;;;-145.69;55.46;52398.84;5134794;27;20567;-80
2024/01/16 02:55:14;;;;;;;2.93;2.07;;;;;;;-145.69;55.24;52432.50;5138363;27;20204;-79
2024/01/16 02:57:42;;;;;;;3.80;1.93;;;;;;;-145.69;55.35;52369.13;5155717;27;20204;-79
2024/01/16 03:00:09;;;;;;;2.40;1.77;;;;;;;-145.69;54.95;52400.81;5155496;27;20226;-79
2024/01/16 03:02:36;;;;;;;3.40;2.10;;;;;;;-145.69;55.59;52440.44;5155155;27;20654;-79
2024/01/16 03:05:04;;;;;;;2.93;2.10;;;;;;;-145.69;56.21;52426.56;5153446;27;20226;-81
2024/01/16 03:07:31;;;;;;;6.33;2.23;;;;;;;-145.69;56.07;52406.75;5134686;27;20525;-80
2024/01/16 03:09:57;;;;;;;3.00;2.20;;;;;;;-145.69;56.75;52442.41;5133305;27;20204;-81
2024/01/16 03:12:24;;;;;;;2.73;2.03;;;;;;;-145.69;56.42;52430.53;5134493;27;20196;-80
2024/01/16 03:14:53;;;;;;;5.23;2.17;;;;;;;-145.69;56.78;52418.63;5134528;27;20555;-80
2024/01/16 03:17:19;;;;;;;3.17;2.00;;;;;;;-145.69;56.50;52412.69;5113746;28;20201;-80
2024/01/16 03:19:46;;;;;;;5.13;2.40;;;;;;;-145.69;56.48;52410.72;5113823;28;20297;-81
2024/01/16 03:22:13;;;;;;;3.83;2.13;;;;;;;-145.69;57.28;52424.59;5114170;28;20201;-80
2024/01/16 03:24:38;;;;;;;3.10;2.00;;;;;;;-145.69;56.42;52424.59;5113945;28;20246;-80
2024/01/16 03:27:05;;;;;;;3.90;2.47;;;;;;;-145.69;57.11;52424.59;5132495;27;20201;-81
2024/01/16 03:29:33;;;;;;;2.97;1.93;;;;;;;-145.69;57.82;52436.47;5134899;27;20193;-80
2024/01/16 03:32:02;;;;;;;7.13;2.43;;;;;;;-145.69;57.13;52428.53;5134163;27;20555;-80
2024/01/16 03:34:28;;;;;;;5.53;2.23;;;;;;;-145.69;57.66;52408.75;5134442;27;20197;-81
2024/01/16 03:36:55;;;;;;;4.20;2.30;;;;;;;-145.69;58.21;52396.84;5150939;27;20432;-81
2024/01/16 03:39:22;;;;;;;5.07;2.03;;;;;;;-145.69;57.45;52400.81;5154760;27;20234;-80
2024/01/16 03:41:48;;;;;;;3.27;2.10;;;;;;;-145.69;57.91;52392.91;5154705;27;20662;-81
2024/01/16 03:44:15;;;;;;;3.30;2.10;;;;;;;-145.69;57.99;52456.28;5154792;27;20252;-80
2024/01/16 03:46:42;;;;;;;6.20;2.67;;;;;;;-145.69;58.24;52448.34;5139007;27;20224;-80
2024/01/16 03:49:09;;;;;;;3.80;2.13;;;;;;;-145.69;57.90;52404.78;5134292;27;20535;-81
2024/01/16 03:51:36;;;;;;;7.40;2.30;;;;;;;-145.69;57.03;52428.53;5133608;27;20200;-81
2024/01/16 03:54:02;;;;;;;4.10;2.23;;;;;;;-145.69;57.44;52454.28;5133716;27;20200;-80
2024/01/16 03:56:29;;;;;;;4.53;2.03;;;;;;;-145.69;57.52;52381.00;5133896;27;20276;-80
2024/01/16 03:58:55;;;;;;;4.23;1.97;;;;;;;-145.69;57.70;52404.78;5133969;27;20229;-81
2024/01/16 04:01:31;;;;;;;4.20;2.47;;;;;;;-145.69;57.83;52434.47;5133791;27;20295;-80
2024/01/16 04:03:57;;;;;;;6.07;2.40;;;;;;;-145.69;57.77;52392.91;5134109;28;20217;-81
2024/01/16 04:06:26;;;;;;;3.60;2.13;;;;;;;-145.69;57.42;52458.25;5137248;27;20200;-80
2024/01/16 04:08:52;;;;;;;5.77;3.10;;;;;;;-145.69;58.13;52440.44;5133362;28;20201;-81
2024/01/16 04:11:19;;;;;;;6.83;2.73;;;;;;;-145.69;57.79;52414.69;5133809;28;20228;-81
2024/01/16 04:13:45;;;;;;;4.97;2.50;;;;;;;-145.69;58.56;52440.44;5133813;27;20249;-80
2024/01/16 04:16:13;;;;;;;5.97;2.20;;;;;;;-145.69;58.53;52416.66;5133430;27;20533;-81
2024/01/16 04:18:41;;;;;;;8.13;2.43;;;;;;;-145.69;58.30;52456.28;5133509;27;20204;-80
2024/01/16 04:21:10;;;;;;;3.23;2.10;;;;;;;-145.69;58.28;52442.41;5136365;27;20204;-80
2024/01/16 04:23:38;;;;;;;5.27;2.73;;;;;;;-145.69;58.40;52428.53;5137675;27;20200;-80
2024/01/16 04:26:07;;;;;;;4.47;2.20;;;;;;;-145.69;59.03;52456.28;5137420;27;20677;-82
2024/01/16 04:28:34;;;;;;;4.17;2.40;;;;;;;-145.69;59.27;52416.66;5137297;27;20241;-81
2024/01/16 04:31:02;;;;;;;5.07;2.30;;;;;;;-145.69;59.28;52416.66;5137641;27;20199;-80
2024/01/16 04:33:32;;;;;;;6.07;2.40;;;;;;;-145.69;58.91;52418.63;5137642;27;20200;-81
2024/01/16 04:36:01;;;;;;;3.87;2.13;;;;;;;-145.69;59.31;52468.16;5137163;27;20201;-81
2024/01/16 04:38:30;;;;;;;5.93;2.30;;;;;;;-145.69;59.23;52460.22;5137615;27;20562;-79
2024/01/16 04:41:07;;;;;;;3.03;2.10;;;;;;;-145.69;59.69;52428.53;5120010;27;20229;-80
2024/01/16 04:43:37;;;;;;;5.43;2.23;;;;;;;-145.69;59.43;52420.63;5116889;28;20201;-81
2024/01/16 04:46:04;;;;;;;5.73;2.60;;;;;;;-145.69;59.32;52444.38;5131216;27;20201;-79
2024/01/16 04:48:31;;;;;;;3.70;2.10;;;;;;;-145.69;59.07;52428.53;5137523;27;20279;-80
2024/01/16 04:51:00;;;;;;;5.20;2.47;;;;;;;-145.69;58.73;52422.59;5137136;27;20689;-80
2024/01/16 04:53:29;;;;;;;4.73;2.30;;;;;;;-145.69;58.97;52464.19;5137413;27;20192;-80
2024/01/16 04:56:01;;;;;;;4.37;2.30;;;;;;;-145.69;59.90;52424.59;5136882;27;20212;-80
2024/01/16 04:58:29;;;;;;;7.20;2.20;;;;;;;-145.69;58.99;52452.31;5137120;27;20283;-81
2024/01/16 05:00:55;;;;;;;4.70;2.00;;;;;;;-145.69;59.14;52440.44;5136886;27;20224;-81
2024/01/16 05:03:28;;;;;;;5.73;2.20;;;;;;;-145.69;58.86;52454.28;5137212;27;20704;-81
2024/01/16 05:05:59;;;;;;;4.40;2.63;;;;;;;-145.69;59.83;52392.91;5136885;27;20225;-80
2024/01/16 05:08:30;;;;;;;4.77;2.17;;;;;;;-145.69;59.26;52446.38;5136780;27;20279;-81
2024/01/16 05:10:59;;;;;;;2.70;2.23;;;;;;;-145.69;59.84;52426.56;5136927;27;20208;-80
2024/01/16 05:13:36;;;;;;;6.13;3.10;;;;;;;-145.69;59.58;52410.72;5136874;27;20250;-81
2024/01/16 05:16:21;;;;;;;5.60;2.17;;;;;;;-145.69;59.88;52400.81;5148869;27;20681;-81
2024/01/16 05:18:49;;;;;;;6.07;2.30;;;;;;;-145.69;59.10;52414.69;5136092;27;20279;-81
2024/01/16 05:21:20;;;;;;;5.07;2.40;;;;;;;-145.69;60.01;52416.66;5136805;27;20245;-81
2024/01/16 05:23:49;;;;;;;8.17;2.60;;;;;;;-145.69;59.17;52434.47;5136970;27;20531;-81
2024/01/16 05:26:16;;;;;;;6.47;2.90;;;;;;;-145.69;59.51;52444.38;5140198;27;20619;-80
2024/01/16 05:28:50;;;;;;;3.60;2.10;;;;;;;-145.69;59.94;52444.38;5135290;27;20551;-80
2024/01/16 05:31:21;;;;;;;4.03;2.40;;;;;;;-145.69;59.29;52426.56;5135816;27;20646;-81
2024/01/16 05:33:54;;;;;;;9.93;2.67;;;;;;;-145.69;59.47;52440.44;5136038;27;20249;-80
2024/01/16 05:36:25;;;;;;;9.70;3.07;;;;;;;-145.69;59.13;52438.44;5136420;27;20224;-81
2024/01/16 05:38:53;;;;;;;5.00;2.33;;;;;;;-145.69;59.07;52442.41;5136661;27;20269;-81
2024/01/16 05:41:19;;;;;;;6.53;2.60;;;;;;;-145.69;58.91;52462.22;5136251;27;20682;-79
2024/01/16 05:43:54;;;;;;;6.50;2.70;;;;;;;-145.69;59.29;52434.47;5136570;27;20248;-81
2024/01/16 05:46:21;;;;;;;2.50;2.07;;;;;;;-145.69;59.16;52456.28;5134243;27;20263;-81
2024/01/16 05:48:48;;;;;;;10.33;2.47;;;;;;;-145.69;59.16;52446.38;5136477;27;20284;-80
2024/01/16 05:51:15;;;;;;;7.70;2.70;;;;;;;-145.69;59.65;52434.47;5139655;27;20654;-81
2024/01/16 05:53:44;;;;;;;14.63;2.70;;;;;;;-145.69;59.71;52448.34;5140531;27;20201;-81
2024/01/16 05:56:11;;;;;;;5.03;2.57;;;;;;;-145.69;59.33;52444.38;5140178;27;20287;-81
2024/01/16 05:58:38;;;;;;;6.40;2.60;;;;;;;-145.69;59.27;52422.59;5140510;27;20260;-80
2024/01/16 06:01:06;;;;;;;6.80;2.77;;;;;;;-145.69;59.61;52438.44;5140048;27;20694;-81
2024/01/16 06:03:33;;;;;;;7.53;2.80;;;;;;;-145.69;59.76;52454.28;5140908;27;20597;-81
2024/01/16 06:06:04;;;;;;;3.20;2.10;;;;;;;-145.69;59.08;52440.44;5139991;27;20200;-80
2024/01/16 06:08:38;;;;;;;9.40;2.77;;;;;;;-145.69;58.86;52414.69;5139241;27;20670;-81
2024/01/16 06:11:05;;;;;;;9.57;2.90;;;;;;;-145.69;59.42;52428.53;5139035;27;20199;-80
2024/01/16 06:13:32;;;;;;;5.20;2.20;;;;;;;-145.69;59.38;52426.56;5139713;27;20257;-81
2024/01/16 06:16:03;;;;;;;3.80;2.47;;;;;;;-145.69;58.97;52408.75;5137817;27;20219;-81
2024/01/16 06:18:31;;;;;;;2.93;2.13;;;;;;;-145.69;58.71;52460.22;5138024;27;20208;-81
2024/01/16 06:20:57;;;;;;;6.33;2.73;;;;;;;-145.69;59.38;52430.53;5138440;27;20228;-81
2024/01/16 06:23:24;;;;;;;4.80;2.80;;;;;;;-145.69;58.77;52460.22;5139122;27;20196;-80
2024/01/16 06:25:51;;;;;;;4.63;2.30;;;;;;;-145.69;59.01;52454.28;5142100;27;20196;-81
2024/01/16 06:28:20;;;;;;;5.17;2.53;;;;;;;-145.69;58.93;52424.59;5138510;27;20197;-81
2024/01/16 06:30:47;;;;;;;7.33;2.97;;;;;;;-145.69;59.49;52416.66;5138533;27;20231;-80
2024/01/16 06:33:13;;;;;;;4.60;2.80;;;;;;;-145.69;59.18;52404.78;5138379;27;20204;-80
2024/01/16 06:35:41;;;;;;;3.67;2.23;;;;;;;-145.69;59.28;52442.41;5137639;27;20219;-80
2024/01/16 06:38:08;;;;;;;6.27;2.33;;;;;;;-145.69;58.87;52428.53;5137623;27;20338;-80
2024/01/16 06:40:34;;;;;;;4.93;2.53;;;;;;;-145.69;58.94;52450.31;5137894;27;20226;-81
2024/01/16 06:43:05;;;;;;;3.97;2.50;;;;;;;-145.69;59.61;52440.44;5138530;27;20199;-81
2024/01/16 06:45:32;;;;;;;9.13;2.80;;;;;;;-145.69;59.23;52456.28;5140823;27;20571;-81
2024/01/16 06:47:58;;;;;;;6.17;2.33;;;;;;;-145.69;58.86;52456.28;5139386;27;20281;-81
2024/01/16 06:50:25;;;;;;;4.10;2.30;;;;;;;-145.69;59.08;52426.56;5117797;28;20288;-81
2024/01/16 06:52:53;;;;;;;6.77;3.23;;;;;;;-145.69;59.13;52424.59;5116996;28;20288;-81
2024/01/16 06:55:19;;;;;;;8.23;3.40;;;;;;;-145.69;59.56;52448.34;5114321;28;20200;-82
2024/01/16 06:57:48;;;;;;;6.77;3.50;;;;;;;-145.69;58.93;52452.31;5128194;27;20635;-80
2024/01/16 07:00:16;;;;;;;6.97;3.30;;;;;;;-145.69;59.15;52424.59;5134934;27;20224;-81
2024/01/16 07:02:46;;;;;;;9.03;3.07;;;;;;;-145.69;59.17;52448.34;5134695;27;20204;-81
2024/01/16 07:05:12;;;;;;;5.30;3.10;;;;;;;-145.69;58.83;52438.44;5134732;27;20193;-82
2024/01/16 07:07:39;;;;;;;8.43;2.90;;;;;;;-145.69;58.86;52436.47;5134345;27;20308;-81
2024/01/16 07:10:13;;;;;;;5.60;3.10;;;;;;;-145.69;59.03;52400.81;5134824;27;20211;-82
2024/01/16 07:12:39;;;;;;;9.33;3.17;;;;;;;-145.69;58.53;52424.59;5134480;27;20232;-82
2024/01/16 07:15:07;;;;;;;7.30;3.73;;;;;;;-145.69;58.46;52442.41;5134797;27;20204;-81
2024/01/16 07:17:34;;;;;;;6.57;3.40;;;;;;;-145.69;58.64;52396.84;5144384;27;20192;-82
2024/01/16 07:20:00;;;;;;;5.53;3.00;;;;;;;-145.69;58.61;52422.59;5149336;27;20685;-81
2024/01/16 07:22:27;;;;;;;14.70;3.27;;;;;;;-145.69;58.98;52428.53;5134315;27;20634;-81
2024/01/16 07:24:53;;;;;;;10.03;3.27;;;;;;;-145.69;58.28;52436.47;5134320;27;20232;-81
2024/01/16 07:27:21;;;;;;;7.53;3.47;;;;;;;-145.69;58.53;52430.53;5134697;27;20272;-81
2024/01/16 07:29:48;;;;;;;5.40;2.93;;;;;;;-145.69;58.44;52412.69;5134305;27;20207;-81
2024/01/16 07:32:14;;;;;;;6.17;3.00;;;;;;;-145.69;57.93;52432.50;5134265;27;20559;-81
2024/01/16 07:34:41;;;;;;;7.63;3.20;;;;;;;-145.69;58.34;52388.94;5134334;27;20207;-81
2024/01/16 07:37:07;;;;;;;7.87;3.17;;;;;;;-145.69;57.70;52426.56;5135767;27;20232;-81
2024/01/16 07:39:34;;;;;;;7.67;3.70;;;;;;;-145.69;58.33;52377.06;5139890;27;20295;-81
2024/01/16 07:42:01;;;;;;;7.50;2.90;;;;;;;-145.69;57.42;52444.38;5137209;27;20216;-81
2024/01/16 07:44:29;;;;;;;9.80;3.33;;;;;;;-145.69;58.00;52402.78;5134133;27;20200;-81
2024/01/16 07:46:55;;;;;;;9.43;3.13;;;;;;;-145.69;57.13;52442.41;5135850;27;20229;-81
2024/01/16 07:49:23;;;;;;;11.43;3.77;;;;;;;-145.69;57.50;52408.75;5138260;27;20197;-81
2024/01/16 07:51:50;;;;;;;6.40;3.00;;;;;;;-145.69;57.06;52456.28;5134271;27;20227;-81
2024/01/16 07:54:16;;;;;;;5.17;2.80;;;;;;;-145.69;56.73;52420.63;5134640;27;20193;-81
2024/01/16 07:56:43;;;;;;;7.40;3.53;;;;;;;-145.69;56.95;52414.69;5133570;27;20601;-81
2024/01/16 07:59:09;;;;;;;5.87;3.73;;;;;;;-145.69;56.46;52398.84;5133739;27;20767;-81
2024/01/16 08:01:38;;;;;;;6.27;3.63;;;;;;;-145.69;56.06;52420.63;5133499;27;20223;-81
2024/01/16 08:04:04;;;;;;;11.50;4.13;;;;;;;-145.69;56.12;52436.47;5134068;28;20212;-82
2024/01/16 08:06:31;;;;;;;7.23;3.33;;;;;;;-145.69;56.07;52410.72;5133960;27;20243;-81
2024/01/16 08:08:57;;;;;;;7.33;3.60;;;;;;;-145.69;56.24;52444.38;5133996;27;20196;-81
2024/01/16 08:11:24;;;;;;;9.30;3.23;;;;;;;-145.69;56.13;52428.53;5133510;28;20202;-80
2024/01/16 08:13:55;;;;;;;5.90;2.90;;;;;;;-145.69;56.42;52462.22;5133764;27;20585;-81
2024/01/16 08:16:26;;;;;;;6.47;3.13;;;;;;;-145.69;56.62;52422.59;5130870;28;20192;-81
2024/01/16 08:18:53;;;;;;;6.40;3.40;;;;;;;-145.69;56.47;52390.91;5133931;28;20207;-81
2024/01/16 08:21:19;;;;;;;6.03;3.20;;;;;;;-145.69;56.27;52412.69;5133627;27;20216;-81
2024/01/16 08:23:45;;;;;;;5.87;3.03;;;;;;;-145.69;56.00;52428.53;5133813;27;20193;-81
2024/01/16 08:26:12;;;;;;;7.90;3.30;;;;;;;-145.69;55.85;52432.50;5133832;28;20203;-81
2024/01/16 08:28:39;;;;;;;6.03;3.50;;;;;;;-145.69;55.62;52412.69;5133459;27;20239;-81
2024/01/16 08:31:06;;;;;;;7.30;2.90;;;;;;;-145.69;55.98;52400.81;5137140;27;20199;-81
2024/01/16 08:33:32;;;;;;;4.83;2.50;;;;;;;-145.69;55.89;52468.16;5133471;27;20200;-81
2024/01/16 08:36:00;;;;;;;6.40;3.27;;;;;;;-145.69;56.19;52424.59;5133584;27;20199;-81
2024/01/16 08:38:27;;;;;;;5.27;2.90;;;;;;;-145.69;55.36;52396.84;5133441;27;20228;-81
2024/01/16 08:40:54;;;;;;;5.67;3.13;;;;;;;-145.69;54.57;52424.59;5133486;27;20229;-81
2024/01/16 08:43:20;;;;;;;6.97;3.03;;;;;;;-145.69;54.36;52420.63;5133375;27;20202;-81
2024/01/16 08:45:48;;;;;;;6.33;3.20;;;;;;;-145.69;54.18;52392.91;5133539;27;20196;-81
2024/01/16 08:48:15;;;;;;;6.33;2.60;;;;;;;-145.69;54.56;52394.88;5133706;27;20533;-81
2024/01/16 08:50:41;;;;;;;4.73;2.50;;;;;;;-145.69;54.61;52410.72;5133469;27;20250;-81
2024/01/16 08:53:12;;;;;;;5.77;2.67;;;;;;;-145.69;53.90;52398.84;5133566;28;20196;-81
2024/01/16 08:55:38;;;;;;;6.47;2.73;;;;;;;-145.69;54.03;52416.66;5133386;27;20257;-81
2024/01/16 08:58:05;;;;;;;6.03;2.30;;;;;;;-145.69;53.93;52404.78;5129442;27;20201;-81
2024/01/16 09:00:33;;;;;;;8.17;2.87;;;;;;;-145.69;53.49;52434.47;5145373;27;20221;-82
2024/01/16 09:02:59;;;;;;;5.63;3.03;;;;;;;-145.69;53.30;52428.53;5112639;28;20239;-81
2024/01/16 09:05:26;;;;;;;5.70;2.57;;;;;;;-145.69;53.27;52406.75;5112962;28;20205;-81
2024/01/16 09:07:53;;;;;;;6.23;2.63;;;;;;;-145.69;52.99;52420.63;5114701;28;20197;-81
2024/01/16 09:10:21;;;;;;;5.60;2.80;;;;;;;-145.69;52.10;52388.94;5132641;27;20682;-82
2024/01/16 09:12:48;;;;;;;5.57;3.03;;;;;;;-145.69;51.41;52426.56;5136346;27;20257;-82
2024/01/16 09:15:15;;;;;;;5.53;3.03;;;;;;;-145.69;50.39;52408.75;5137113;27;20558;-82
2024/01/16 09:17:42;;;;;;;5.33;2.90;;;;;;;-145.69;50.28;52418.63;5138248;27;20225;-82
2024/01/16 09:20:17;;;;;;;5.67;2.63;;;;;;;-145.69;49.99;52402.78;5137537;27;20204;-81
2024/01/16 09:22:43;;;;;;;4.37;2.40;;;;;;;-145.69;48.85;52384.97;5138036;27;20192;-81
2024/01/16 09:25:13;;;;;;;5.67;2.90;;;;;;;-145.69;48.62;52400.81;5137135;27;20205;-81
2024/01/16 09:27:44;;;;;;;6.73;2.83;;;;;;;-145.69;48.59;52392.91;5139446;27;20200;-81
2024/01/16 09:30:15;;;;;;;4.93;2.47;;;;;;;-145.69;47.38;52392.91;5142015;27;20222;-80
2024/01/16 09:32:42;;;;;;;5.33;2.73;;;;;;;-145.69;46.08;52369.13;5142118;27;20197;-81
2024/01/16 09:35:10;;;;;;;4.83;2.83;;;;;;;-145.69;45.84;52379.03;5137740;27;20201;-82
2024/01/16 09:37:37;;;;;;;10.53;3.00;;;;;;;-145.69;46.23;52379.03;5137237;27;20292;-82
2024/01/16 09:40:06;;;;;;;6.43;2.90;;;;;;;-145.69;47.07;52369.13;5136446;27;20663;-81
2024/01/16 09:42:34;;;;;;;4.37;2.30;;;;;;;-145.69;46.26;52363.19;5140455;27;20234;-81
2024/01/16 09:45:06;;;;;;;7.00;2.57;;;;;;;-145.69;45.68;52341.41;5141685;27;20558;-82
2024/01/16 09:47:33;;;;;;;5.57;2.43;;;;;;;-145.69;45.90;52377.06;5136739;27;20315;-80
2024/01/16 09:50:01;;;;;;;3.97;2.30;;;;;;;-145.69;45.61;52361.22;5138808;27;20203;-81
2024/01/16 09:52:28;;;;;;;3.43;2.60;;;;;;;-145.69;45.31;52315.66;5138468;27;20213;-83
2024/01/16 09:54:54;;;;;;;5.07;2.53;;;;;;;-145.69;44.20;52371.13;5136253;27;20207;-82
2024/01/16 09:57:24;;;;;;;5.10;2.17;;;;;;;-145.69;44.01;52408.75;5135877;27;20645;-81
2024/01/16 09:59:52;;;;;;;4.37;2.03;;;;;;;-145.69;40.90;52361.22;5136064;27;20204;-82
2024/01/16 10:02:20;;;;;;;5.10;2.00;;;;;;;-145.69;41.47;52355.28;5136432;27;20232;-82
2024/01/16 10:04:47;;;;;;;4.53;2.20;;;;;;;-145.69;41.01;52377.06;5136727;27;20447;-82
2024/01/16 10:07:16;;;;;;;4.07;2.00;;;;;;;-145.69;41.39;52373.09;5136569;27;20207;-82
2024/01/16 10:09:44;;;;;;;3.60;1.83;;;;;;;-145.69;41.08;52327.53;5136580;27;20196;-82
2024/01/16 10:12:11;;;;;;;3.77;1.90;;;;;;;-145.69;40.94;52365.16;5136058;27;20204;-82
2024/01/16 10:14:38;;;;;;;6.60;2.07;;;;;;;-145.69;41.11;52319.63;5135934;27;20200;-82
2024/01/16 10:17:09;;;;;;;3.37;1.90;;;;;;;-145.69;40.91;52345.38;5134318;27;20595;-81
2024/01/16 10:19:48;;;;;;;4.93;1.90;;;;;;;-145.69;40.26;52383.00;5132054;27;20593;-82
2024/01/16 10:22:20;;;;;;;2.97;1.80;;;;;;;-145.69;39.89;52321.59;5135580;27;20254;-81
2024/01/16 10:24:47;;;;;;;4.00;2.10;;;;;;;-145.69;40.75;52361.22;5136720;27;20208;-80
2024/01/16 10:27:16;;;;;;;4.57;1.80;;;;;;;-145.69;40.84;52353.28;5135186;27;20587;-81
2024/01/16 10:29:56;;;;;;;3.47;1.70;;;;;;;-145.69;40.75;52341.41;5135518;27;20220;-81
2024/01/16 10:32:29;;;;;;;5.90;2.10;;;;;;;-145.69;41.16;52361.22;5135056;27;20193;-81
2024/01/16 10:35:05;;;;;;;3.90;2.47;;;;;;;-145.69;41.70;52363.19;5121715;27;20250;-81
2024/01/16 10:37:32;;;;;;;4.63;2.53;;;;;;;-145.69;42.42;52381.00;5114576;28;20707;-80
2024/01/16 10:39:59;;;;;;;5.60;2.30;;;;;;;-145.69;42.43;52381.00;5119473;27;20328;-81
2024/01/16 10:42:25;;;;;;;4.30;2.20;;;;;;;-145.69;42.56;52390.91;5135469;27;20232;-81
2024/01/16 10:44:56;;;;;;;7.10;3.40;;;;;;;-145.69;42.62;52365.16;5134897;27;20212;-81
2024/01/16 10:47:23;;;;;;;6.10;3.27;;;;;;;-145.69;42.62;52400.81;5134863;27;20257;-81
2024/01/16 10:49:50;;;;;;;6.33;2.77;;;;;;;-145.69;42.90;52383.00;5134997;27;20273;-81
2024/01/16 10:52:18;;;;;;;7.23;3.13;;;;;;;-145.69;43.16;52367.16;5135202;27;20197;-82
2024/01/16 10:54:49;;;;;;;4.10;2.20;;;;;;;-145.69;43.00;52379.03;5137233;27;20552;-78
2024/01/16 10:57:16;;;;;;;7.30;2.90;;;;;;;-145.69;42.86;52367.16;5130906;27;20237;-82
2024/01/16 10:59:50;;;;;;;4.17;2.10;;;;;;;-145.69;42.65;52341.41;5134832;27;20650;-82
2024/01/16 11:02:24;;;;;;;5.87;2.20;;;;;;;-145.69;42.79;52369.13;5134819;27;20292;-80
2024/01/16 11:04:54;;;;;;;5.27;2.57;;;;;;;-145.69;43.41;52351.31;5134784;27;20197;-83
2024/01/16 11:07:22;;;;;;;3.90;1.87;;;;;;;-145.69;43.00;52363.19;5135031;27;20207;-82
2024/01/16 11:09:49;;;;;;;6.07;2.50;;;;;;;-145.69;43.27;52361.22;5134213;27;20200;-82
2024/01/16 11:12:19;;;;;;;4.57;1.90;;;;;;;-145.69;43.48;52357.25;5137999;27;20193;-80
2024/01/16 11:14:50;;;;;;;4.67;2.13;;;;;;;-145.69;42.97;52353.28;5134916;27;20284;-81
2024/01/16 11:17:19;;;;;;;4.17;2.20;;;;;;;-145.69;43.23;52335.47;5134626;27;20204;-82
2024/01/16 11:19:47;;;;;;;6.80;2.30;;;;;;;-145.69;43.02;52353.28;5134439;27;20679;-81